createdAt,value
2022-11-05T00:00:03.738Z,0.00
2022-11-05T00:01:03.745Z,0.00
2022-11-05T00:02:03.784Z,0.00
2022-11-05T00:03:03.716Z,0.00
2022-11-05T00:04:03.864Z,0.00
2022-11-05T00:05:03.698Z,0.00
2022-11-05T00:06:03.702Z,0.00
2022-11-05T00:07:03.658Z,0.00
2022-11-05T00:08:03.657Z,0.00
2022-11-05T00:09:03.660Z,0.00
2022-11-05T00:10:03.632Z,0.00
2022-11-05T00:11:03.635Z,0.00
2022-11-05T00:12:03.618Z,0.00
2022-11-05T00:13:03.622Z,0.00
2022-11-05T00:14:03.589Z,0.00
2022-11-05T00:15:03.601Z,0.00
2022-11-05T00:16:03.560Z,0.00
2022-11-05T00:17:03.552Z,0.00
2022-11-05T00:18:03.557Z,0.00
2022-11-05T00:19:03.539Z,0.00
2022-11-05T00:20:03.532Z,0.00
2022-11-05T00:21:03.520Z,0.00
2022-11-05T00:22:03.518Z,0.00
2022-11-05T00:23:03.490Z,0.00
2022-11-05T00:24:03.480Z,0.00
2022-11-05T00:25:03.491Z,0.00
2022-11-05T00:26:03.453Z,0.00
2022-11-05T00:27:03.449Z,0.00
2022-11-05T00:28:03.441Z,0.00
2022-11-05T00:29:03.450Z,0.00
2022-11-05T00:30:03.425Z,0.00
2022-11-05T00:31:03.403Z,0.00
2022-11-05T00:32:03.398Z,0.00
2022-11-05T00:33:03.409Z,0.00
2022-11-05T00:34:03.382Z,0.00
2022-11-05T00:35:03.379Z,0.00
2022-11-05T00:36:03.348Z,0.00
2022-11-05T00:37:03.353Z,0.00
2022-11-05T00:38:03.323Z,0.00
2022-11-05T00:39:03.319Z,0.00
2022-11-05T00:40:03.321Z,0.00
2022-11-05T00:41:03.292Z,0.00
2022-11-05T00:42:03.281Z,0.00
2022-11-05T00:43:03.271Z,0.00
2022-11-05T00:44:03.274Z,0.00
2022-11-05T00:45:03.279Z,0.00
2022-11-05T00:46:03.258Z,0.00
2022-11-05T00:47:03.232Z,0.00
2022-11-05T00:48:03.214Z,0.00
2022-11-05T00:49:03.212Z,0.00
2022-11-05T00:50:03.225Z,0.00
2022-11-05T00:51:03.184Z,0.00
2022-11-05T00:52:03.172Z,0.00
2022-11-05T00:53:03.167Z,0.00
2022-11-05T00:54:03.185Z,0.00
2022-11-05T00:55:03.154Z,0.00
2022-11-05T00:56:03.135Z,0.00
2022-11-05T00:57:04.808Z,0.00
2022-11-05T00:58:03.106Z,0.00
2022-11-05T00:59:03.124Z,0.00
2022-11-05T01:00:03.103Z,0.00
2022-11-05T01:01:03.086Z,0.00
2022-11-05T01:02:03.223Z,0.00
2022-11-05T01:03:03.076Z,0.00
2022-11-05T01:04:03.055Z,0.00
2022-11-05T01:05:03.046Z,0.00
2022-11-05T01:06:03.025Z,0.00
2022-11-05T01:07:03.027Z,0.00
2022-11-05T01:08:03.026Z,0.00
2022-11-05T01:09:03.007Z,0.00
2022-11-05T01:10:03.000Z,0.00
2022-11-05T01:11:02.995Z,0.00
2022-11-05T01:12:02.967Z,0.00
2022-11-05T01:13:02.947Z,0.00
2022-11-05T01:14:02.957Z,0.00
2022-11-05T01:15:02.945Z,0.00
2022-11-05T01:16:02.908Z,0.00
2022-11-05T01:17:02.898Z,0.00
2022-11-05T01:18:02.915Z,0.00
2022-11-05T01:19:02.881Z,0.00
2022-11-05T01:20:02.880Z,0.00
2022-11-05T01:21:02.860Z,0.00
2022-11-05T01:22:02.848Z,0.00
2022-11-05T01:23:02.850Z,0.00
2022-11-05T01:24:02.829Z,0.00
2022-11-05T01:25:02.853Z,0.00
2022-11-05T01:26:02.810Z,0.00
2022-11-05T01:27:02.799Z,0.00
2022-11-05T01:28:02.800Z,0.00
2022-11-05T01:29:02.804Z,0.00
2022-11-05T01:30:02.807Z,0.00
2022-11-05T01:31:02.759Z,0.00
2022-11-05T01:32:02.763Z,0.00
2022-11-05T01:33:02.728Z,0.00
2022-11-05T01:34:02.734Z,0.00
2022-11-05T01:35:02.709Z,0.00
2022-11-05T01:36:02.703Z,0.00
2022-11-05T01:37:02.702Z,0.00
2022-11-05T01:38:02.695Z,0.00
2022-11-05T01:39:02.674Z,0.00
2022-11-05T01:40:02.668Z,0.00
2022-11-05T01:41:02.652Z,0.00
2022-11-05T01:42:02.669Z,0.00
2022-11-05T01:43:02.623Z,0.00
2022-11-05T01:44:02.622Z,0.00
2022-11-05T01:45:02.613Z,0.00
2022-11-05T01:46:02.591Z,0.00
2022-11-05T01:47:02.574Z,0.00
2022-11-05T01:48:02.577Z,0.00
2022-11-05T01:49:03.473Z,0.00
2022-11-05T01:50:02.551Z,0.00
2022-11-05T01:51:02.534Z,0.00
2022-11-05T01:52:02.563Z,0.00
2022-11-05T01:53:02.525Z,0.00
2022-11-05T01:54:02.515Z,0.00
2022-11-05T01:55:02.505Z,0.00
2022-11-05T01:56:02.502Z,0.00
2022-11-05T01:57:02.478Z,0.00
2022-11-05T01:58:02.472Z,0.00
2022-11-05T01:59:02.472Z,0.00
2022-11-05T02:00:02.446Z,0.00
2022-11-05T02:01:02.435Z,0.00
2022-11-05T02:02:02.570Z,0.00
2022-11-05T02:03:02.457Z,0.00
2022-11-05T02:04:02.415Z,0.00
2022-11-05T02:05:02.394Z,0.00
2022-11-05T02:06:02.385Z,0.00
2022-11-05T02:07:02.366Z,0.00
2022-11-05T02:08:02.353Z,0.00
2022-11-05T02:09:02.366Z,0.00
2022-11-05T02:10:02.336Z,0.00
2022-11-05T02:11:02.319Z,0.00
2022-11-05T02:12:02.327Z,0.00
2022-11-05T02:13:02.293Z,0.00
2022-11-05T02:14:02.287Z,0.00
2022-11-05T02:15:02.290Z,0.00
2022-11-05T02:16:02.278Z,0.00
2022-11-05T02:17:02.248Z,0.00
2022-11-05T02:18:02.250Z,0.00
2022-11-05T02:19:02.239Z,0.00
2022-11-05T02:20:02.236Z,0.00
2022-11-05T02:21:02.226Z,0.00
2022-11-05T02:22:02.211Z,0.00
2022-11-05T02:23:02.179Z,0.00
2022-11-05T02:24:02.178Z,0.00
2022-11-05T02:25:02.164Z,0.00
2022-11-05T02:26:02.170Z,0.00
2022-11-05T02:27:02.158Z,0.00
2022-11-05T02:28:02.138Z,0.00
2022-11-05T02:29:02.139Z,0.00
2022-11-05T02:30:02.138Z,0.00
2022-11-05T02:31:02.111Z,0.00
2022-11-05T02:32:02.101Z,0.00
2022-11-05T02:33:02.094Z,0.00
2022-11-05T02:34:02.088Z,0.00
2022-11-05T02:35:02.069Z,0.00
2022-11-05T02:36:02.061Z,0.00
2022-11-05T02:37:02.040Z,0.00
2022-11-05T02:38:02.041Z,0.00
2022-11-05T02:39:02.034Z,0.00
2022-11-05T02:40:02.019Z,0.00
2022-11-05T02:41:02.001Z,0.00
2022-11-05T02:42:04.988Z,0.00
2022-11-05T02:43:02.001Z,0.00
2022-11-05T02:44:01.973Z,0.00
2022-11-05T02:45:01.960Z,0.00
2022-11-05T02:46:01.963Z,0.00
2022-11-05T02:47:01.932Z,0.00
2022-11-05T02:48:01.923Z,0.00
2022-11-05T02:49:01.903Z,0.00
2022-11-05T02:50:01.924Z,0.00
2022-11-05T02:51:01.893Z,0.00
2022-11-05T02:52:01.876Z,0.00
2022-11-05T02:53:01.874Z,0.00
2022-11-05T02:54:01.876Z,0.00
2022-11-05T02:55:01.853Z,0.00
2022-11-05T02:56:01.833Z,0.00
2022-11-05T02:57:01.834Z,0.00
2022-11-05T02:58:01.815Z,0.00
2022-11-05T02:59:01.793Z,0.00
2022-11-05T03:00:01.790Z,0.00
2022-11-05T03:01:01.775Z,0.00
2022-11-05T03:02:01.891Z,0.00
2022-11-05T03:03:01.786Z,0.00
2022-11-05T03:04:01.746Z,0.00
2022-11-05T03:05:01.738Z,0.00
2022-11-05T03:06:01.735Z,0.00
2022-11-05T03:07:01.706Z,0.00
2022-11-05T03:08:01.716Z,0.00
2022-11-05T03:09:01.685Z,0.00
2022-11-05T03:10:01.685Z,0.00
2022-11-05T03:11:01.666Z,0.00
2022-11-05T03:12:01.663Z,0.00
2022-11-05T03:13:01.646Z,0.00
2022-11-05T03:14:01.637Z,0.00
2022-11-05T03:15:01.639Z,0.00
2022-11-05T03:16:01.616Z,0.00
2022-11-05T03:17:01.597Z,0.00
2022-11-05T03:18:01.597Z,0.00
2022-11-05T03:19:01.587Z,0.00
2022-11-05T03:20:01.598Z,0.00
2022-11-05T03:21:01.567Z,0.00
2022-11-05T03:22:01.548Z,0.00
2022-11-05T03:23:01.539Z,0.00
2022-11-05T03:24:01.537Z,0.00
2022-11-05T03:25:01.528Z,0.00
2022-11-05T03:26:01.530Z,0.00
2022-11-05T03:27:01.497Z,0.00
2022-11-05T03:28:01.489Z,0.00
2022-11-05T03:29:01.468Z,0.00
2022-11-05T03:30:01.470Z,0.00
2022-11-05T03:31:01.474Z,0.00
2022-11-05T03:32:01.450Z,0.00
2022-11-05T03:33:01.437Z,0.00
2022-11-05T03:34:01.431Z,0.00
2022-11-05T03:35:01.411Z,0.00
2022-11-05T03:36:01.415Z,0.00
2022-11-05T03:37:01.413Z,0.00
2022-11-05T03:38:01.406Z,0.00
2022-11-05T03:39:01.368Z,0.00
2022-11-05T03:40:01.359Z,0.00
2022-11-05T03:41:01.340Z,0.00
2022-11-05T03:42:01.340Z,0.00
2022-11-05T03:43:01.338Z,0.00
2022-11-05T03:44:01.351Z,0.00
2022-11-05T03:45:01.301Z,0.00
2022-11-05T03:46:01.302Z,0.00
2022-11-05T03:47:01.280Z,0.00
2022-11-05T03:48:01.291Z,0.00
2022-11-05T03:49:01.288Z,0.00
2022-11-05T03:50:01.251Z,0.00
2022-11-05T03:51:01.231Z,0.00
2022-11-05T03:52:01.265Z,0.00
2022-11-05T03:53:01.215Z,0.00
2022-11-05T03:54:01.223Z,0.00
2022-11-05T03:55:01.192Z,0.00
2022-11-05T03:56:01.191Z,0.00
2022-11-05T03:57:01.182Z,0.00
2022-11-05T03:58:01.163Z,0.00
2022-11-05T03:59:01.144Z,0.00
2022-11-05T04:00:01.163Z,0.00
2022-11-05T04:01:01.128Z,0.00
2022-11-05T04:02:01.241Z,0.00
2022-11-05T04:03:01.144Z,0.00
2022-11-05T04:04:01.103Z,0.00
2022-11-05T04:05:01.122Z,0.00
2022-11-05T04:06:01.075Z,0.00
2022-11-05T04:07:01.063Z,0.00
2022-11-05T04:08:01.061Z,0.00
2022-11-05T04:09:01.043Z,0.00
2022-11-05T04:10:01.070Z,0.00
2022-11-05T04:11:01.042Z,0.00
2022-11-05T04:12:01.024Z,0.00
2022-11-05T04:13:01.015Z,0.00
2022-11-05T04:14:00.992Z,0.00
2022-11-05T04:15:00.976Z,0.00
2022-11-05T04:16:00.976Z,0.00
2022-11-05T04:17:00.965Z,0.00
2022-11-05T04:18:00.968Z,0.00
2022-11-05T04:19:00.945Z,0.00
2022-11-05T04:20:00.942Z,0.00
2022-11-05T04:21:00.949Z,0.00
2022-11-05T04:22:00.906Z,0.00
2022-11-05T04:23:00.898Z,0.00
2022-11-05T04:24:00.915Z,0.00
2022-11-05T04:25:00.873Z,0.00
2022-11-05T04:26:00.879Z,0.00
2022-11-05T04:27:00.847Z,0.00
2022-11-05T04:28:00.837Z,0.00
2022-11-05T04:29:06.721Z,0.00
2022-11-05T04:30:01.836Z,0.00
2022-11-05T04:31:00.798Z,0.00
2022-11-05T04:32:00.797Z,0.00
2022-11-05T04:33:00.781Z,0.00
2022-11-05T04:34:00.789Z,0.00
2022-11-05T04:35:00.798Z,0.00
2022-11-05T04:36:00.760Z,0.00
2022-11-05T04:37:00.738Z,0.00
2022-11-05T04:38:00.729Z,0.00
2022-11-05T04:39:00.730Z,0.00
2022-11-05T04:40:00.726Z,0.00
2022-11-05T04:41:00.710Z,0.00
2022-11-05T04:42:00.689Z,0.00
2022-11-05T04:43:00.669Z,0.00
2022-11-05T04:44:00.669Z,0.00
2022-11-05T04:45:00.654Z,0.00
2022-11-05T04:46:00.660Z,0.00
2022-11-05T04:47:00.629Z,0.00
2022-11-05T04:48:00.620Z,0.00
2022-11-05T04:49:00.620Z,0.00
2022-11-05T04:50:00.601Z,0.00
2022-11-05T04:51:00.581Z,0.00
2022-11-05T04:52:00.580Z,0.00
2022-11-05T04:53:00.560Z,0.00
2022-11-05T04:54:00.581Z,0.00
2022-11-05T04:55:00.542Z,0.00
2022-11-05T04:56:00.552Z,0.00
2022-11-05T04:57:00.522Z,0.00
2022-11-05T04:58:00.513Z,0.00
2022-11-05T04:59:00.499Z,0.00
2022-11-05T05:00:00.500Z,0.00
2022-11-05T05:01:00.514Z,0.00
2022-11-05T05:02:00.519Z,0.00
2022-11-05T05:03:00.452Z,0.00
2022-11-05T05:04:00.452Z,0.00
2022-11-05T05:05:00.433Z,0.00
2022-11-05T05:06:03.827Z,0.00
2022-11-05T05:07:00.434Z,0.00
2022-11-05T05:08:00.411Z,0.00
2022-11-05T05:09:00.404Z,0.00
2022-11-05T05:10:00.383Z,0.00
2022-11-05T05:11:00.369Z,0.00
2022-11-05T05:12:00.364Z,0.00
2022-11-05T05:13:00.352Z,0.00
2022-11-05T05:14:00.361Z,0.00
2022-11-05T05:15:00.329Z,0.00
2022-11-05T05:16:00.329Z,0.00
2022-11-05T05:17:00.304Z,0.00
2022-11-05T05:18:00.324Z,0.00
2022-11-05T05:19:00.284Z,0.00
2022-11-05T05:20:00.320Z,0.00
2022-11-05T05:21:00.266Z,0.00
2022-11-05T05:22:00.256Z,0.00
2022-11-05T05:23:00.245Z,0.00
2022-11-05T05:24:00.235Z,0.00
2022-11-05T05:25:00.225Z,0.00
2022-11-05T05:26:00.216Z,0.00
2022-11-05T05:27:00.198Z,0.00
2022-11-05T05:28:00.196Z,0.00
2022-11-05T05:29:00.175Z,0.00
2022-11-05T05:30:00.197Z,0.00
2022-11-05T05:31:00.155Z,0.00
2022-11-05T05:32:00.166Z,0.00
2022-11-05T05:33:00.136Z,0.00
2022-11-05T05:34:00.119Z,0.00
2022-11-05T05:35:00.127Z,0.00
2022-11-05T05:36:00.106Z,0.00
2022-11-05T05:37:00.115Z,0.00
2022-11-05T05:38:00.088Z,0.00
2022-11-05T05:39:00.081Z,0.00
2022-11-05T05:40:00.066Z,0.00
2022-11-05T05:41:00.073Z,0.00
2022-11-05T05:42:00.070Z,0.00
2022-11-05T05:43:00.028Z,0.00
2022-11-05T05:44:00.021Z,0.00
2022-11-05T05:45:00.011Z,0.00
2022-11-05T05:46:00.028Z,0.00
2022-11-05T05:46:59.988Z,0.00
2022-11-05T05:47:59.977Z,0.00
2022-11-05T05:48:59.981Z,0.00
2022-11-05T05:49:59.952Z,0.00
2022-11-05T05:50:59.940Z,0.00
2022-11-05T05:51:59.929Z,0.00
2022-11-05T05:52:59.941Z,0.00
2022-11-05T05:53:59.920Z,0.00
2022-11-05T05:54:59.919Z,4.00
2022-11-05T05:55:59.881Z,0.00
2022-11-05T05:56:59.881Z,4.00
2022-11-05T05:57:59.871Z,4.00
2022-11-05T05:58:59.871Z,4.00
2022-11-05T05:59:59.842Z,8.00
2022-11-05T06:00:59.842Z,8.00
2022-11-05T06:01:59.889Z,12.00
2022-11-05T06:02:59.840Z,12.00
2022-11-05T06:03:59.820Z,16.00
2022-11-05T06:04:59.799Z,16.00
2022-11-05T06:05:59.772Z,20.00
2022-11-05T06:06:59.775Z,24.00
2022-11-05T06:07:59.769Z,24.00
2022-11-05T06:08:59.772Z,28.00
2022-11-05T06:09:59.761Z,32.00
2022-11-05T06:11:01.298Z,36.00
2022-11-05T06:11:59.731Z,36.00
2022-11-05T06:13:00.286Z,44.00
2022-11-05T06:13:59.713Z,52.00
2022-11-05T06:14:59.684Z,52.00
2022-11-05T06:15:59.715Z,52.00
2022-11-05T06:16:59.753Z,48.00
2022-11-05T06:17:59.654Z,52.00
2022-11-05T06:18:59.643Z,68.00
2022-11-05T06:19:59.626Z,88.00
2022-11-05T06:20:59.623Z,104.00
2022-11-05T06:21:59.621Z,116.00
2022-11-05T06:22:59.596Z,124.00
2022-11-05T06:23:59.635Z,140.00
2022-11-05T06:24:59.578Z,152.00
2022-11-05T06:25:59.565Z,164.00
2022-11-05T06:26:59.575Z,180.00
2022-11-05T06:27:59.556Z,192.00
2022-11-05T06:28:59.537Z,200.00
2022-11-05T06:29:59.523Z,208.00
2022-11-05T06:30:59.514Z,220.00
2022-11-05T06:31:59.517Z,224.00
2022-11-05T06:32:59.495Z,228.00
2022-11-05T06:33:59.474Z,232.00
2022-11-05T06:34:59.482Z,232.00
2022-11-05T06:35:59.467Z,236.00
2022-11-05T06:37:00.165Z,244.00
2022-11-05T06:37:59.464Z,256.00
2022-11-05T06:39:00.125Z,272.00
2022-11-05T06:39:59.424Z,284.00
2022-11-05T06:41:00.501Z,288.00
2022-11-05T06:43:01.406Z,284.00
2022-11-05T06:43:59.414Z,276.00
2022-11-05T06:44:59.624Z,272.00
2022-11-05T06:45:59.355Z,276.00
2022-11-05T06:47:00.057Z,292.00
2022-11-05T06:47:59.356Z,304.00
2022-11-05T06:49:00.019Z,308.00
2022-11-05T06:49:59.312Z,308.00
2022-11-05T06:51:00.019Z,308.00
2022-11-05T06:51:59.287Z,316.00
2022-11-05T06:52:59.317Z,328.00
2022-11-05T06:53:59.275Z,340.00
2022-11-05T06:54:59.257Z,352.00
2022-11-05T06:55:59.248Z,372.00
2022-11-05T06:56:59.229Z,392.00
2022-11-05T06:57:59.570Z,404.00
2022-11-05T06:58:59.210Z,428.00
2022-11-05T07:00:03.285Z,468.00
2022-11-05T07:01:00.242Z,508.00
2022-11-05T07:01:59.221Z,540.00
2022-11-05T07:02:59.179Z,564.00
2022-11-05T07:03:59.151Z,580.00
2022-11-05T07:04:59.148Z,624.00
2022-11-05T07:05:59.139Z,692.00
2022-11-05T07:06:59.120Z,736.00
2022-11-05T07:07:59.132Z,748.00
2022-11-05T07:08:59.102Z,800.00
2022-11-05T07:09:59.103Z,808.00
2022-11-05T07:10:59.098Z,808.00
2022-11-05T07:11:59.071Z,852.00
2022-11-05T07:13:02.409Z,912.00
2022-11-05T07:14:00.052Z,964.00
2022-11-05T07:14:59.068Z,996.00
2022-11-05T07:15:59.043Z,1032.00
2022-11-05T07:16:59.012Z,1108.00
2022-11-05T07:17:59.001Z,1152.00
2022-11-05T07:18:59.012Z,1080.00
2022-11-05T07:19:58.972Z,1216.00
2022-11-05T07:20:58.992Z,1308.00
2022-11-05T07:21:58.962Z,1380.00
2022-11-05T07:22:58.952Z,1328.00
2022-11-05T07:23:59.660Z,1068.00
2022-11-05T07:24:58.956Z,884.00
2022-11-05T07:25:58.933Z,772.00
2022-11-05T07:26:58.913Z,696.00
2022-11-05T07:27:58.893Z,648.00
2022-11-05T07:28:58.903Z,596.00
2022-11-05T07:29:58.876Z,564.00
2022-11-05T07:30:58.868Z,592.00
2022-11-05T07:31:59.094Z,632.00
2022-11-05T07:32:59.513Z,664.00
2022-11-05T07:33:58.824Z,704.00
2022-11-05T07:34:58.822Z,740.00
2022-11-05T07:35:58.865Z,792.00
2022-11-05T07:36:58.804Z,836.00
2022-11-05T07:37:58.829Z,900.00
2022-11-05T07:39:00.502Z,928.00
2022-11-05T07:39:58.775Z,912.00
2022-11-05T07:40:58.756Z,888.00
2022-11-05T07:41:59.706Z,876.00
2022-11-05T07:42:58.769Z,908.00
2022-11-05T07:44:00.205Z,912.00
2022-11-05T07:44:58.738Z,912.00
2022-11-05T07:45:59.416Z,956.00
2022-11-05T07:46:58.736Z,916.00
2022-11-05T07:47:58.682Z,832.00
2022-11-05T07:48:58.697Z,740.00
2022-11-05T07:49:59.377Z,660.00
2022-11-05T07:50:58.660Z,696.00
2022-11-05T07:51:58.638Z,692.00
2022-11-05T07:52:58.648Z,700.00
2022-11-05T07:53:59.318Z,744.00
2022-11-05T07:54:58.616Z,892.00
2022-11-05T07:55:59.567Z,972.00
2022-11-05T07:56:58.598Z,988.00
2022-11-05T07:57:58.580Z,1008.00
2022-11-05T07:58:58.570Z,876.00
2022-11-05T07:59:58.568Z,1124.00
2022-11-05T08:00:58.662Z,1012.00
2022-11-05T08:01:59.435Z,1040.00
2022-11-05T08:03:09.482Z,836.00
2022-11-05T08:04:00.228Z,804.00
2022-11-05T08:04:58.543Z,700.00
2022-11-05T08:05:59.210Z,724.00
2022-11-05T08:06:58.496Z,628.00
2022-11-05T08:07:58.466Z,568.00
2022-11-05T08:08:58.470Z,512.00
2022-11-05T08:09:58.453Z,464.00
2022-11-05T08:10:58.430Z,440.00
2022-11-05T08:12:02.685Z,544.00
2022-11-05T08:12:58.411Z,548.00
2022-11-05T08:13:58.431Z,552.00
2022-11-05T08:14:58.391Z,444.00
2022-11-05T08:15:58.411Z,324.00
2022-11-05T08:16:58.371Z,284.00
2022-11-05T08:17:58.361Z,288.00
2022-11-05T08:18:58.351Z,300.00
2022-11-05T08:19:58.342Z,348.00
2022-11-05T08:20:58.343Z,340.00
2022-11-05T08:21:58.312Z,328.00
2022-11-05T08:22:58.318Z,340.00
2022-11-05T08:23:58.313Z,476.00
2022-11-05T08:25:02.668Z,628.00
2022-11-05T08:25:59.273Z,680.00
2022-11-05T08:26:58.281Z,684.00
2022-11-05T08:27:58.352Z,900.00
2022-11-05T08:28:58.263Z,1028.00
2022-11-05T08:29:58.223Z,1024.00
2022-11-05T08:30:58.232Z,976.00
2022-11-05T08:31:58.200Z,976.00
2022-11-05T08:32:58.201Z,968.00
2022-11-05T08:34:02.284Z,1024.00
2022-11-05T08:34:58.182Z,1016.00
2022-11-05T08:35:58.173Z,1036.00
2022-11-05T08:36:58.154Z,1140.00
2022-11-05T08:37:58.155Z,1188.00
2022-11-05T08:38:58.144Z,1216.00
2022-11-05T08:39:58.114Z,1196.00
2022-11-05T08:40:58.126Z,1220.00
2022-11-05T08:41:58.092Z,976.00
2022-11-05T08:42:58.104Z,960.00
2022-11-05T08:43:58.073Z,1060.00
2022-11-05T08:44:58.062Z,880.00
2022-11-05T08:45:58.075Z,1120.00
2022-11-05T08:46:58.065Z,1092.00
2022-11-05T08:47:58.034Z,1212.00
2022-11-05T08:48:58.035Z,1232.00
2022-11-05T08:49:58.006Z,1148.00
2022-11-05T08:50:58.016Z,1124.00
2022-11-05T08:51:57.977Z,1076.00
2022-11-05T08:52:57.980Z,1052.00
2022-11-05T08:53:57.968Z,1008.00
2022-11-05T08:54:57.956Z,960.00
2022-11-05T08:55:57.973Z,944.00
2022-11-05T08:56:57.935Z,960.00
2022-11-05T08:57:57.919Z,1040.00
2022-11-05T08:58:57.917Z,1196.00
2022-11-05T08:59:57.897Z,1292.00
2022-11-05T09:01:04.462Z,1396.00
2022-11-05T09:01:58.978Z,1516.00
2022-11-05T09:02:57.887Z,1640.00
2022-11-05T09:03:57.857Z,1600.00
2022-11-05T09:04:57.848Z,1420.00
2022-11-05T09:05:57.835Z,1280.00
2022-11-05T09:06:57.837Z,1372.00
2022-11-05T09:08:00.947Z,1256.00
2022-11-05T09:08:57.810Z,1228.00
2022-11-05T09:09:57.810Z,1088.00
2022-11-05T09:10:57.798Z,980.00
2022-11-05T09:12:11.870Z,952.00
2022-11-05T09:12:58.761Z,1088.00
2022-11-05T09:13:57.750Z,1084.00
2022-11-05T09:14:57.770Z,1076.00
2022-11-05T09:15:57.732Z,1128.00
2022-11-05T09:16:57.719Z,1040.00
2022-11-05T09:17:57.700Z,960.00
2022-11-05T09:18:57.699Z,952.00
2022-11-05T09:19:57.717Z,1000.00
2022-11-05T09:20:57.679Z,1060.00
2022-11-05T09:21:57.659Z,1016.00
2022-11-05T09:22:57.660Z,1320.00
2022-11-05T09:23:57.639Z,1276.00
2022-11-05T09:24:57.650Z,1172.00
2022-11-05T09:25:57.618Z,1336.00
2022-11-05T09:26:57.620Z,1492.00
2022-11-05T09:27:57.601Z,1464.00
2022-11-05T09:28:57.591Z,1452.00
2022-11-05T09:29:57.580Z,1536.00
2022-11-05T09:30:57.570Z,1576.00
2022-11-05T09:31:57.563Z,1868.00
2022-11-05T09:32:57.569Z,1844.00
2022-11-05T09:33:57.554Z,2568.00
2022-11-05T09:34:57.522Z,2548.00
2022-11-05T09:35:57.513Z,2192.00
2022-11-05T09:36:57.513Z,2232.00
2022-11-05T09:38:00.967Z,2672.00
2022-11-05T09:38:57.503Z,2756.00
2022-11-05T09:39:57.474Z,3228.00
2022-11-05T09:40:57.463Z,3184.00
2022-11-05T09:41:57.443Z,2728.00
2022-11-05T09:42:57.442Z,2296.00
2022-11-05T09:43:57.421Z,2968.00
2022-11-05T09:44:57.434Z,2472.00
2022-11-05T09:45:57.424Z,2108.00
2022-11-05T09:46:57.395Z,2104.00
2022-11-05T09:47:57.385Z,2276.00
2022-11-05T09:48:57.364Z,2288.00
2022-11-05T09:49:57.396Z,2636.00
2022-11-05T09:50:57.345Z,2564.00
2022-11-05T09:51:57.344Z,3420.00
2022-11-05T09:52:57.325Z,3808.00
2022-11-05T09:53:57.323Z,4272.00
2022-11-05T09:54:57.305Z,4444.00
2022-11-05T09:55:57.308Z,4160.00
2022-11-05T09:56:57.283Z,3752.00
2022-11-05T09:57:57.306Z,3676.00
2022-11-05T09:58:57.263Z,3192.00
2022-11-05T09:59:57.265Z,2764.00
2022-11-05T10:00:57.361Z,2740.00
2022-11-05T10:01:57.338Z,2860.00
2022-11-05T10:02:57.237Z,2772.00
2022-11-05T10:03:57.227Z,3204.00
2022-11-05T10:04:57.257Z,3032.00
2022-11-05T10:05:57.362Z,2848.00
2022-11-05T10:06:57.174Z,3084.00
2022-11-05T10:07:57.176Z,2080.00
2022-11-05T10:08:57.177Z,2140.00
2022-11-05T10:09:57.147Z,2376.00
2022-11-05T10:10:57.137Z,2204.00
2022-11-05T10:11:57.128Z,1948.00
2022-11-05T10:12:57.112Z,2104.00
2022-11-05T10:13:57.134Z,2204.00
2022-11-05T10:14:57.126Z,2132.00
2022-11-05T10:15:57.098Z,1832.00
2022-11-05T10:16:57.068Z,1984.00
2022-11-05T10:17:57.078Z,2112.00
2022-11-05T10:18:57.055Z,2468.00
2022-11-05T10:19:57.047Z,2824.00
2022-11-05T10:20:57.054Z,2216.00
2022-11-05T10:22:06.645Z,2176.00
2022-11-05T10:22:57.999Z,2236.00
2022-11-05T10:23:56.999Z,1900.00
2022-11-05T10:24:57.007Z,2116.00
2022-11-05T10:25:56.971Z,2036.00
2022-11-05T10:26:56.965Z,1988.00
2022-11-05T10:27:56.952Z,2236.00
2022-11-05T10:28:56.940Z,2476.00
2022-11-05T10:29:56.949Z,2204.00
2022-11-05T10:30:56.910Z,2364.00
2022-11-05T10:31:56.909Z,2824.00
2022-11-05T10:32:56.891Z,3040.00
2022-11-05T10:33:56.888Z,3248.00
2022-11-05T10:34:56.893Z,2504.00
2022-11-05T10:35:56.861Z,3028.00
2022-11-05T10:36:56.850Z,2796.00
2022-11-05T10:37:56.856Z,2932.00
2022-11-05T10:38:56.862Z,3192.00
2022-11-05T10:39:56.851Z,3232.00
2022-11-05T10:40:56.802Z,3056.00
2022-11-05T10:41:56.801Z,3432.00
2022-11-05T10:42:56.804Z,3556.00
2022-11-05T10:43:56.909Z,2932.00
2022-11-05T10:44:56.762Z,2740.00
2022-11-05T10:45:56.773Z,3912.00
2022-11-05T10:46:56.772Z,4328.00
2022-11-05T10:47:56.742Z,4464.00
2022-11-05T10:48:56.724Z,4620.00
2022-11-05T10:49:56.734Z,4804.00
2022-11-05T10:50:56.709Z,5732.00
2022-11-05T10:51:56.704Z,6296.00
2022-11-05T10:52:56.684Z,5992.00
2022-11-05T10:54:01.526Z,5584.00
2022-11-05T10:54:57.654Z,5676.00
2022-11-05T10:55:56.655Z,4744.00
2022-11-05T10:56:56.636Z,4356.00
2022-11-05T10:57:56.636Z,3876.00
2022-11-05T10:58:56.615Z,3780.00
2022-11-05T10:59:56.615Z,4732.00
2022-11-05T11:00:56.650Z,4312.00
2022-11-05T11:01:56.755Z,4136.00
2022-11-05T11:02:56.598Z,5156.00
2022-11-05T11:03:56.565Z,4672.00
2022-11-05T11:04:56.554Z,3912.00
2022-11-05T11:05:56.572Z,3948.00
2022-11-05T11:06:56.527Z,3516.00
2022-11-05T11:07:56.536Z,2840.00
2022-11-05T11:08:56.507Z,3296.00
2022-11-05T11:09:56.536Z,3320.00
2022-11-05T11:10:56.485Z,3616.00
2022-11-05T11:11:56.489Z,3500.00
2022-11-05T11:12:56.463Z,3004.00
2022-11-05T11:13:56.479Z,2400.00
2022-11-05T11:14:56.439Z,2760.00
2022-11-05T11:15:56.437Z,3328.00
2022-11-05T11:16:56.441Z,2952.00
2022-11-05T11:17:56.412Z,2416.00
2022-11-05T11:18:56.398Z,2236.00
2022-11-05T11:19:56.390Z,2676.00
2022-11-05T11:20:56.380Z,3952.00
2022-11-05T11:21:56.390Z,4436.00
2022-11-05T11:22:56.358Z,5812.00
2022-11-05T11:23:56.367Z,7156.00
2022-11-05T11:24:56.330Z,9588.00
2022-11-05T11:25:56.331Z,9764.00
2022-11-05T11:26:56.311Z,10536.00
2022-11-05T11:27:56.309Z,11268.00
2022-11-05T11:28:56.310Z,13592.00
2022-11-05T11:29:56.285Z,11324.00
2022-11-05T11:30:56.271Z,11904.00
2022-11-05T11:31:56.262Z,11476.00
2022-11-05T11:32:56.253Z,10748.00
2022-11-05T11:33:56.251Z,11744.00
2022-11-05T11:34:56.222Z,17696.00
2022-11-05T11:35:56.229Z,14656.00
2022-11-05T11:36:56.223Z,35200.00
2022-11-05T11:37:56.201Z,32320.00
2022-11-05T11:38:56.184Z,12792.00
2022-11-05T11:39:56.219Z,41184.00
2022-11-05T11:40:56.161Z,9660.00
2022-11-05T11:41:56.154Z,25472.00
2022-11-05T11:42:56.134Z,9876.00
2022-11-05T11:43:56.132Z,9240.00
2022-11-05T11:44:56.114Z,6116.00
2022-11-05T11:46:00.658Z,5196.00
2022-11-05T11:46:57.103Z,5620.00
2022-11-05T11:47:56.094Z,5940.00
2022-11-05T11:48:56.071Z,6944.00
2022-11-05T11:49:56.071Z,7780.00
2022-11-05T11:50:56.072Z,6752.00
2022-11-05T11:51:56.055Z,5532.00
2022-11-05T11:52:56.025Z,3888.00
2022-11-05T11:53:56.042Z,3972.00
2022-11-05T11:54:56.006Z,4820.00
2022-11-05T11:55:56.039Z,5696.00
2022-11-05T11:56:56.007Z,5540.00
2022-11-05T11:57:55.985Z,4736.00
2022-11-05T11:58:55.964Z,3984.00
2022-11-05T12:00:08.746Z,3768.00
2022-11-05T12:00:56.944Z,4108.00
2022-11-05T12:01:56.342Z,4308.00
2022-11-05T12:03:01.334Z,3540.00
2022-11-05T12:03:56.910Z,3312.00
2022-11-05T12:04:55.908Z,3520.00
2022-11-05T12:05:55.897Z,4564.00
2022-11-05T12:06:55.902Z,5340.00
2022-11-05T12:07:55.868Z,6456.00
2022-11-05T12:09:01.970Z,7640.00
2022-11-05T12:09:56.861Z,13076.00
2022-11-05T12:10:55.830Z,13392.00
2022-11-05T12:11:55.820Z,17568.00
2022-11-05T12:12:55.829Z,19296.00
2022-11-05T12:13:55.807Z,17344.00
2022-11-05T12:14:55.792Z,20576.00
2022-11-05T12:15:55.800Z,18848.00
2022-11-05T12:16:55.775Z,21184.00
2022-11-05T12:17:55.762Z,37184.00
2022-11-05T12:18:55.774Z,56800.00
2022-11-05T12:19:55.741Z,59680.00
2022-11-05T12:20:58.353Z,58080.00
2022-11-05T12:21:55.722Z,55680.00
2022-11-05T12:22:55.726Z,54912.00
2022-11-05T12:23:55.693Z,48704.00
2022-11-05T12:24:55.690Z,57088.00
2022-11-05T12:25:55.713Z,50336.00
2022-11-05T12:26:55.663Z,57120.00
2022-11-05T12:27:55.655Z,33408.00
2022-11-05T12:29:17.160Z,17568.00
2022-11-05T12:29:56.632Z,60128.00
2022-11-05T12:30:55.634Z,40032.00
2022-11-05T12:31:55.605Z,58144.00
2022-11-05T12:32:55.694Z,58912.00
2022-11-05T12:33:55.606Z,58464.00
2022-11-05T12:34:55.570Z,57504.00
2022-11-05T12:35:57.959Z,56256.00
2022-11-05T12:36:55.554Z,54240.00
2022-11-05T12:37:55.549Z,54016.00
2022-11-05T12:38:55.533Z,47488.00
2022-11-05T12:39:55.539Z,54944.00
2022-11-05T12:40:55.519Z,42848.00
2022-11-05T12:41:55.520Z,13276.00
2022-11-05T12:42:55.501Z,20992.00